Time;durP1;ratioP1;P1;durP2;ratioP2;P2;SDS_P1;SDS_P2;PMS_P1;PMS_P2;Temp;Humidity;BMP_temperature;BMP_pressure;BME280_temperature;BME280_humidity;BME280_pressure;Samples;Min_cycle;Max_cycle;Signal;HPM_P1;HPM_P2
2023/06/10 00:01:18;;;;;;;3.80;3.00;;;;;;;11.01;59.42;97053.00;6280214;28;20052;-60
2023/06/10 00:04:22;;;;;;;3.70;2.67;;;;;;;10.97;59.64;97046.28;6286895;28;20649;-60
2023/06/10 00:07:23;;;;;;;5.55;3.13;;;;;;;10.91;59.75;97047.50;6283857;28;20955;-60
2023/06/10 00:10:30;;;;;;;4.15;2.83;;;;;;;10.95;59.78;97048.13;6284094;28;20048;-60
2023/06/10 00:13:34;;;;;;;5.13;3.40;;;;;;;10.97;59.66;97047.09;6283336;28;20052;-61
2023/06/10 00:16:36;;;;;;;;;;;;;;;10.93;59.38;97047.41;6284336;28;20534;-60
2023/06/10 00:19:40;;;;;;;4.47;2.77;;;;;;;11.01;59.46;97048.63;6293080;28;20345;-63
2023/06/10 00:22:45;;;;;;;5.32;2.90;;;;;;;11.08;59.29;97053.50;6289528;28;20048;-60
2023/06/10 00:25:46;;;;;;;7.90;3.40;;;;;;;11.16;59.14;97057.31;6289946;28;20056;-60
2023/06/10 00:28:52;;;;;;;5.40;3.00;;;;;;;11.17;59.22;97053.72;6290106;28;20055;-60
2023/06/10 00:31:58;;;;;;;4.18;2.95;;;;;;;11.23;59.18;97053.31;6287531;28;20049;-61
2023/06/10 00:35:01;;;;;;;;;;;;;;;11.17;58.50;97059.00;6291409;28;20044;-61
2023/06/10 00:38:07;;;;;;;10.40;3.00;;;;;;;11.18;59.18;97055.44;6287807;28;19916;-61
2023/06/10 00:41:08;;;;;;;8.88;3.85;;;;;;;11.20;59.12;97044.78;6285989;28;20713;-60
2023/06/10 00:44:12;;;;;;;;;;;;;;;11.19;58.45;97041.31;6288980;28;20055;-60
2023/06/10 00:47:16;;;;;;;10.18;3.55;;;;;;;11.24;59.09;97039.22;6288704;28;19920;-59
2023/06/10 00:50:17;;;;;;;8.38;3.92;;;;;;;11.33;59.08;97043.06;6290002;28;20047;-61
2023/06/10 00:53:20;;;;;;;9.63;3.88;;;;;;;11.34;59.11;97041.25;6288244;28;20377;-60
2023/06/10 00:56:22;;;;;;;8.32;4.00;;;;;;;11.41;59.32;97034.66;6288715;28;20040;-61
2023/06/10 00:59:25;;;;;;;12.35;3.92;;;;;;;11.46;59.04;97043.09;6288791;28;20044;-60
2023/06/10 01:02:27;;;;;;;12.18;4.10;;;;;;;11.57;58.97;97045.84;6286705;28;20048;-61
2023/06/10 01:05:28;;;;;;;10.45;4.22;;;;;;;11.59;58.81;97036.06;6290742;28;20140;-59
2023/06/10 01:08:46;;;;;;;7.65;3.83;;;;;;;11.71;58.92;97046.75;6287354;28;20044;-61
2023/06/10 01:12:02;;;;;;;12.95;4.55;;;;;;;11.76;58.72;97057.84;6287351;28;20052;-60
2023/06/10 01:15:08;;;;;;;12.77;4.40;;;;;;;11.80;58.69;97051.38;6290919;28;20045;-60
2023/06/10 01:18:14;;;;;;;12.23;4.75;;;;;;;11.87;58.42;97063.25;6290124;28;20435;-60
2023/06/10 01:21:24;;;;;;;17.85;4.72;;;;;;;12.00;58.49;97064.13;6283448;28;20040;-60
2023/06/10 01:24:28;;;;;;;14.38;4.68;;;;;;;12.06;58.24;97069.00;6286107;28;20052;-60
2023/06/10 01:27:39;;;;;;;11.18;4.35;;;;;;;12.12;58.68;97062.47;6278027;28;20045;-61
2023/06/10 01:30:48;;;;;;;10.23;4.07;;;;;;;12.22;58.42;97067.94;6281787;28;20053;-60
2023/06/10 01:33:55;;;;;;;9.15;3.88;;;;;;;12.32;58.42;97067.22;6285993;28;20135;-59
2023/06/10 01:37:00;;;;;;;11.55;4.30;;;;;;;12.42;58.42;97075.31;6288763;28;20051;-61
2023/06/10 01:40:07;;;;;;;12.70;4.18;;;;;;;12.47;58.25;97065.28;6289370;28;20040;-61
2023/06/10 01:43:11;;;;;;;10.93;3.97;;;;;;;12.55;58.26;97059.50;6283355;28;20056;-62
2023/06/10 01:46:19;;;;;;;10.45;4.13;;;;;;;12.67;58.17;97073.63;6289005;28;20052;-60
2023/06/10 01:49:24;;;;;;;8.57;3.67;;;;;;;12.73;58.10;97067.91;6286249;28;20134;-60
2023/06/10 01:52:27;;;;;;;11.63;3.65;;;;;;;12.81;58.13;97073.50;6286593;28;20037;-61
2023/06/10 01:55:31;;;;;;;8.85;3.17;;;;;;;12.87;58.44;97074.84;6286343;28;20130;-59
2023/06/10 01:58:35;;;;;;;7.78;3.30;;;;;;;12.94;58.41;97084.88;6291024;28;20419;-61
2023/06/10 02:01:36;;;;;;;;;;;;;;;12.95;57.90;97077.81;6286640;28;20051;-60
2023/06/10 02:04:37;;;;;;;7.65;3.28;;;;;;;13.00;58.05;97073.88;6283508;28;19916;-61
2023/06/10 02:07:44;;;;;;;5.80;2.97;;;;;;;13.08;58.31;97083.03;6286677;28;20052;-60
2023/06/10 02:10:47;;;;;;;9.27;4.15;;;;;;;13.17;58.47;97082.41;6264918;28;20041;-61
2023/06/10 02:13:48;;;;;;;5.78;3.40;;;;;;;13.26;58.16;97081.75;6284656;28;20060;-59
2023/06/10 02:16:51;;;;;;;5.97;2.83;;;;;;;13.38;58.30;97080.88;6290419;28;20055;-60
2023/06/10 02:19:56;;;;;;;5.97;3.53;;;;;;;13.48;58.15;97089.81;6288651;28;20048;-60
2023/06/10 02:23:00;;;;;;;11.90;4.22;;;;;;;13.61;58.30;97099.50;6287915;28;20530;-59
2023/06/10 02:26:04;;;;;;;8.48;3.90;;;;;;;13.67;57.92;97099.03;6283838;28;20652;-61
2023/06/10 02:29:08;;;;;;;7.47;3.95;;;;;;;13.72;57.95;97094.25;6287179;28;20037;-60
2023/06/10 02:32:12;;;;;;;10.48;4.30;;;;;;;13.77;57.80;97091.28;6280387;28;20408;-60
2023/06/10 02:35:14;;;;;;;10.95;3.95;;;;;;;13.86;57.78;97102.00;6282870;28;20576;-59
2023/06/10 02:38:20;;;;;;;7.32;3.83;;;;;;;14.00;57.47;97108.06;6286574;28;20048;-61
2023/06/10 02:41:24;;;;;;;9.73;3.65;;;;;;;14.10;57.24;97104.63;6288913;28;20051;-58
2023/06/10 02:44:29;;;;;;;8.43;3.28;;;;;;;14.11;57.15;97110.75;6289101;28;20055;-59
2023/06/10 02:47:32;;;;;;;6.47;3.15;;;;;;;14.22;56.85;97105.50;6284795;28;20037;-61
2023/06/10 02:50:33;;;;;;;4.72;2.72;;;;;;;14.30;56.74;97099.63;6286979;28;20040;-60
2023/06/10 02:53:37;;;;;;;5.38;2.65;;;;;;;14.45;56.12;97105.56;6285072;28;20607;-60
2023/06/10 02:56:41;;;;;;;5.43;2.92;;;;;;;14.55;55.97;97103.91;6284238;28;20049;-60
2023/06/10 02:59:43;;;;;;;7.20;3.10;;;;;;;14.61;55.67;97116.69;6279021;28;20052;-60
2023/06/10 03:02:45;;;;;;;6.03;2.55;;;;;;;14.67;55.48;97108.25;6285838;28;20036;-60
2023/06/10 03:05:47;;;;;;;8.90;2.80;;;;;;;14.81;55.13;97115.97;6288155;28;20056;-60
2023/06/10 03:08:51;;;;;;;8.57;4.63;;;;;;;14.94;54.99;97115.00;6284032;28;20052;-59
2023/06/10 03:11:52;;;;;;;9.30;4.15;;;;;;;15.08;54.02;97122.72;6284544;28;20060;-60
2023/06/10 03:14:53;;;;;;;5.95;2.70;;;;;;;15.16;53.68;97117.66;6286039;28;20044;-58
2023/06/10 03:17:57;;;;;;;;;;;;;;;15.27;53.25;97122.09;6285297;28;20040;-59
2023/06/10 03:21:02;;;;;;;2.70;2.25;;;;;;;15.40;53.25;97106.91;6279871;28;19927;-60
2023/06/10 03:24:04;;;;;;;2.75;2.00;;;;;;;15.53;53.07;97119.16;6287524;28;20051;-60
2023/06/10 03:27:09;;;;;;;3.00;2.05;;;;;;;15.78;52.63;97131.31;6275312;28;20447;-60
2023/06/10 03:30:12;;;;;;;2.55;2.00;;;;;;;15.80;52.39;97116.13;6278457;28;20060;-62
2023/06/10 03:33:13;;;;;;;4.32;1.98;;;;;;;15.93;51.98;97120.25;6283852;28;20056;-60
2023/06/10 03:36:15;;;;;;;4.95;2.30;;;;;;;16.08;51.66;97117.34;6279994;28;20634;-60
2023/06/10 03:39:16;;;;;;;3.85;2.22;;;;;;;16.29;50.52;97115.50;6286407;28;20044;-61
2023/06/10 03:42:17;;;;;;;3.85;1.80;;;;;;;16.50;49.69;97112.88;6281304;28;20045;-58
2023/06/10 03:45:18;;;;;;;3.30;1.77;;;;;;;16.51;49.62;97106.59;6279829;28;20575;-60
2023/06/10 03:48:22;;;;;;;2.42;1.92;;;;;;;16.64;49.03;97119.66;6283419;28;20047;-61
2023/06/10 03:51:26;;;;;;;3.70;1.77;;;;;;;16.93;46.92;97114.53;6283555;28;20511;-60
2023/06/10 03:54:31;;;;;;;2.88;1.40;;;;;;;17.05;46.44;97124.09;6284442;28;20049;-61
2023/06/10 03:57:35;;;;;;;7.07;1.77;;;;;;;17.09;46.42;97113.19;6287325;28;20040;-60
2023/06/10 04:00:41;;;;;;;2.90;1.75;;;;;;;17.18;46.08;97117.69;6282602;28;20087;-60
2023/06/10 04:03:48;;;;;;;5.18;1.90;;;;;;;17.25;44.56;97102.88;6281045;28;20036;-60
2023/06/10 04:06:52;;;;;;;2.47;1.50;;;;;;;17.56;42.73;97116.97;6279347;28;20072;-61
2023/06/10 04:09:54;;;;;;;2.83;1.75;;;;;;;17.68;42.61;97125.66;6284788;28;20052;-59
2023/06/10 04:12:58;;;;;;;2.17;1.77;;;;;;;17.86;40.78;97129.38;6285983;28;20145;-60
2023/06/10 04:16:02;;;;;;;2.95;1.42;;;;;;;17.95;39.70;97125.88;6283143;28;20041;-60
2023/06/10 04:19:09;;;;;;;2.30;1.48;;;;;;;17.97;39.81;97120.41;6285414;28;20090;-60
2023/06/10 04:22:12;;;;;;;1.40;1.08;;;;;;;18.10;40.03;97131.63;6284874;28;20048;-60
2023/06/10 04:25:14;;;;;;;1.92;1.27;;;;;;;18.28;39.46;97123.75;6286975;28;20051;-59
2023/06/10 04:28:15;;;;;;;1.52;1.08;;;;;;;18.37;39.24;97130.06;6277670;28;20516;-60
2023/06/10 04:31:16;;;;;;;1.42;1.33;;;;;;;18.51;38.21;97123.44;6286186;28;20040;-60
2023/06/10 04:34:21;;;;;;;1.30;1.15;;;;;;;18.57;38.14;97133.53;6285902;28;20070;-60
2023/06/10 04:37:22;;;;;;;3.00;1.40;;;;;;;18.79;37.02;97135.91;6283252;28;20048;-59
2023/06/10 04:40:23;;;;;;;1.23;0.95;;;;;;;18.90;36.42;97145.56;6286624;28;20048;-60
2023/06/10 04:43:28;;;;;;;2.20;1.23;;;;;;;19.49;36.05;97140.84;6265336;28;20056;-60
2023/06/10 04:46:32;;;;;;;3.13;1.20;;;;;;;21.72;32.16;97143.28;6284967;28;20495;-59
2023/06/10 04:49:33;;;;;;;1.45;0.95;;;;;;;23.94;27.25;97142.06;6282751;28;20040;-60
2023/06/10 04:52:34;;;;;;;1.95;1.30;;;;;;;25.89;24.39;97141.25;6265232;28;20045;-60
2023/06/10 04:55:36;;;;;;;1.42;0.95;;;;;;;27.67;22.10;97148.38;6280216;28;20535;-60
2023/06/10 04:58:44;;;;;;;4.70;1.17;;;;;;;29.38;20.85;97149.94;6286988;28;20424;-60
2023/06/10 05:01:48;;;;;;;1.42;0.75;;;;;;;31.20;19.21;97147.72;6289319;28;20514;-60
2023/06/10 05:04:53;;;;;;;2.22;1.17;;;;;;;33.13;17.48;97153.41;6286380;28;20132;-60
2023/06/10 05:07:59;;;;;;;2.22;1.15;;;;;;;35.16;16.16;97153.13;6289035;28;20052;-61
2023/06/10 05:11:03;;;;;;;1.10;0.70;;;;;;;36.88;14.90;97151.97;6286128;28;20048;-60
2023/06/10 05:14:06;;;;;;;1.33;0.90;;;;;;;38.41;13.73;97141.91;6283784;28;20036;-60
2023/06/10 05:17:12;;;;;;;1.98;0.77;;;;;;;39.46;13.12;97150.75;6289659;28;20040;-60
2023/06/10 05:20:19;;;;;;;2.08;0.80;;;;;;;40.45;10.78;97150.94;6291849;28;20044;-61
2023/06/10 05:23:23;;;;;;;1.20;1.10;;;;;;;40.75;10.44;97149.13;6280979;28;20032;-61
2023/06/10 05:26:25;;;;;;;;;;;;;;;43.20;10.68;97157.31;6290146;28;20056;-61
2023/06/10 05:29:26;;;;;;;1.77;1.17;;;;;;;43.66;9.58;97158.44;6287977;28;19928;-60
2023/06/10 05:32:32;;;;;;;1.92;1.17;;;;;;;43.47;9.46;97156.53;6283108;28;20044;-61
2023/06/10 05:35:36;;;;;;;2.33;1.17;;;;;;;44.03;9.31;97162.97;6284195;28;20052;-61
2023/06/10 05:38:43;;;;;;;4.45;0.90;;;;;;;44.01;9.13;97159.69;6290670;28;20041;-60
2023/06/10 05:41:46;;;;;;;2.63;0.88;;;;;;;43.66;9.06;97147.34;6283345;28;20409;-68
2023/06/10 05:44:47;;;;;;;1.40;1.08;;;;;;;43.59;9.35;97144.97;6288310;28;20554;-62
2023/06/10 05:47:52;;;;;;;5.32;1.60;;;;;;;43.81;9.08;97143.44;6284288;28;20154;-61
2023/06/10 05:50:53;;;;;;;1.17;0.90;;;;;;;45.03;8.60;97151.84;6289950;28;20388;-61
2023/06/10 05:54:02;;;;;;;1.30;1.00;;;;;;;44.80;8.45;97152.97;6290880;28;20040;-60
2023/06/10 05:57:05;;;;;;;2.78;1.38;;;;;;;43.76;8.71;97146.31;6285713;28;20131;-61
2023/06/10 06:00:08;;;;;;;1.25;0.98;;;;;;;43.77;8.84;97148.78;6289578;28;20056;-60
2023/06/10 06:03:09;;;;;;;1.65;1.00;;;;;;;44.47;8.56;97144.81;6286062;28;20045;-61
2023/06/10 06:06:17;;;;;;;2.33;1.10;;;;;;;44.68;8.29;97144.38;6289267;28;20048;-61
2023/06/10 06:09:20;;;;;;;2.47;1.20;;;;;;;45.61;7.90;97149.25;6285273;28;20036;-61
2023/06/10 06:12:26;;;;;;;2.13;1.20;;;;;;;44.39;8.28;97137.25;6287257;28;20515;-61
2023/06/10 06:15:31;;;;;;;1.38;0.88;;;;;;;44.13;8.72;97132.25;6283515;28;20381;-61
2023/06/10 06:18:37;;;;;;;1.55;1.45;;;;;;;43.58;8.76;97135.03;6282666;28;20109;-62
2023/06/10 06:21:40;;;;;;;4.80;1.27;;;;;;;43.15;9.13;97139.97;6272830;28;20117;-60
2023/06/10 06:24:45;;;;;;;3.58;1.92;;;;;;;43.60;9.00;97127.22;6288757;28;20044;-60
2023/06/10 06:27:51;;;;;;;1.55;1.17;;;;;;;43.90;8.97;97136.84;6285346;28;20063;-62
2023/06/10 06:30:55;;;;;;;3.20;1.40;;;;;;;44.76;8.52;97135.28;6287987;28;20060;-61
2023/06/10 06:34:01;;;;;;;3.67;1.20;;;;;;;45.47;8.14;97144.63;6283720;28;20115;-60
2023/06/10 06:37:02;;;;;;;2.42;1.10;;;;;;;46.77;7.38;97124.69;6282825;28;20522;-61
2023/06/10 06:40:05;;;;;;;1.08;0.90;;;;;;;47.14;7.46;97127.13;6283562;28;20412;-61
2023/06/10 06:43:09;;;;;;;2.45;1.20;;;;;;;47.11;7.47;97128.59;6288391;28;20476;-61
2023/06/10 06:46:13;;;;;;;1.90;1.10;;;;;;;46.65;7.65;97130.06;6286333;28;20575;-61
2023/06/10 06:49:14;;;;;;;3.55;0.98;;;;;;;45.75;7.98;97133.31;6286214;28;20431;-60
2023/06/10 06:52:22;;;;;;;1.23;1.05;;;;;;;44.82;8.71;97128.50;6285343;28;20045;-61
2023/06/10 06:55:23;;;;;;;1.75;1.10;;;;;;;44.87;8.49;97124.78;6285189;28;20268;-60
2023/06/10 06:58:26;;;;;;;1.50;0.98;;;;;;;44.45;8.57;97124.91;6285059;28;20178;-60
2023/06/10 07:01:30;;;;;;;1.13;0.98;;;;;;;44.02;8.94;97111.41;6284682;28;20056;-61
2023/06/10 07:04:35;;;;;;;1.38;1.27;;;;;;;43.83;9.60;97119.03;6280910;28;20055;-61
2023/06/10 07:07:41;;;;;;;1.83;1.55;;;;;;;44.91;8.63;97117.47;6284455;28;20487;-61
2023/06/10 07:10:45;;;;;;;1.33;0.85;;;;;;;45.60;8.42;97114.28;6267772;28;20592;-61
2023/06/10 07:13:51;;;;;;;1.77;1.40;;;;;;;45.81;8.61;97115.34;6284642;28;20044;-60
2023/06/10 07:16:59;;;;;;;3.08;1.20;;;;;;;45.08;8.50;97125.09;6282803;28;20604;-61
2023/06/10 07:20:04;;;;;;;1.42;1.00;;;;;;;44.68;8.87;97117.44;6285058;28;20033;-61
2023/06/10 07:23:05;;;;;;;1.77;1.30;;;;;;;44.43;9.18;97121.63;6286689;28;20052;-60
2023/06/10 07:26:11;;;;;;;2.35;1.60;;;;;;;45.17;8.52;97115.69;6287027;28;20416;-60
2023/06/10 07:29:17;;;;;;;1.38;1.10;;;;;;;42.18;10.15;97103.47;6284779;28;20049;-60
2023/06/10 07:32:22;;;;;;;3.42;1.40;;;;;;;38.56;12.73;97104.56;6286577;28;20707;-61
2023/06/10 07:35:26;;;;;;;3.50;1.83;;;;;;;39.40;11.95;97096.81;6288371;28;20043;-61
2023/06/10 07:38:29;;;;;;;2.67;1.55;;;;;;;40.93;11.37;97096.00;6283531;28;20514;-60
2023/06/10 07:41:33;;;;;;;2.88;1.40;;;;;;;41.30;10.84;97091.78;6283226;28;20048;-59
2023/06/10 07:44:40;;;;;;;1.35;1.25;;;;;;;40.94;11.24;97086.63;6280989;28;20045;-62
2023/06/10 07:47:45;;;;;;;1.90;1.58;;;;;;;42.27;10.85;97090.63;6288715;28;20535;-60
2023/06/10 07:50:49;;;;;;;3.25;1.83;;;;;;;42.70;10.25;97082.25;6266046;28;20114;-62
2023/06/10 07:53:56;;;;;;;1.65;1.42;;;;;;;43.84;9.83;97082.66;6284241;28;20032;-61
2023/06/10 07:56:59;;;;;;;2.10;1.60;;;;;;;45.32;9.03;97092.22;6286966;28;20655;-60
2023/06/10 08:00:04;;;;;;;1.30;1.20;;;;;;;43.88;9.81;97083.69;6280062;28;20519;-61
2023/06/10 08:03:08;;;;;;;1.65;1.17;;;;;;;43.15;10.08;97077.09;6280143;28;20036;-60
2023/06/10 08:06:11;;;;;;;1.67;1.10;;;;;;;43.38;9.93;97080.00;6266092;28;20075;-61
2023/06/10 08:09:15;;;;;;;2.28;1.15;;;;;;;43.32;9.95;97070.97;6281143;28;20610;-60
2023/06/10 08:12:20;;;;;;;2.30;1.67;;;;;;;44.09;9.35;97061.91;6282931;28;20054;-61
2023/06/10 08:15:26;;;;;;;1.42;1.10;;;;;;;42.43;10.43;97057.25;6281282;28;20036;-60
2023/06/10 08:18:32;;;;;;;3.22;1.63;;;;;;;38.17;13.34;97052.78;6284319;28;20052;-61
2023/06/10 08:21:34;;;;;;;3.30;1.77;;;;;;;36.13;15.21;97047.66;6287163;28;20041;-61
2023/06/10 08:24:35;;;;;;;1.75;1.35;;;;;;;37.96;13.65;97041.78;6285013;28;20173;-61
2023/06/10 08:27:36;;;;;;;2.22;1.50;;;;;;;38.59;13.76;97047.09;6281871;28;20049;-60
2023/06/10 08:30:39;;;;;;;2.53;1.90;;;;;;;36.03;15.29;97041.22;6282662;28;20056;-60
2023/06/10 08:33:46;;;;;;;3.47;2.15;;;;;;;35.25;16.10;97047.69;6286388;28;20052;-61
2023/06/10 08:36:55;;;;;;;2.22;1.70;;;;;;;34.03;16.92;97032.81;6284829;28;20044;-60
2023/06/10 08:40:01;;;;;;;3.30;1.63;;;;;;;33.56;17.46;97030.28;6290309;28;20071;-61
2023/06/10 08:43:15;;;;;;;4.03;1.88;;;;;;;32.52;17.89;97039.09;6292438;28;20048;-60
2023/06/10 08:46:20;;;;;;;2.03;1.60;;;;;;;31.45;18.93;97033.47;6286573;28;20033;-60
2023/06/10 08:49:23;;;;;;;2.97;1.90;;;;;;;31.04;19.08;97041.22;6286145;28;20056;-61
2023/06/10 08:52:34;;;;;;;2.92;1.80;;;;;;;30.74;19.51;97041.06;6291206;28;20052;-62
2023/06/10 08:55:42;;;;;;;4.25;2.40;;;;;;;31.04;19.62;97041.22;6287341;28;20074;-60
2023/06/10 08:58:47;;;;;;;2.63;1.77;;;;;;;31.26;19.08;97025.31;6285849;28;20135;-60
2023/06/10 09:01:57;;;;;;;3.70;2.00;;;;;;;31.33;19.60;97034.19;6286244;28;20056;-60
2023/06/10 09:05:02;;;;;;;4.47;2.50;;;;;;;32.97;18.37;97033.06;6292373;28;20044;-60
2023/06/10 09:08:09;;;;;;;4.88;1.63;;;;;;;33.40;17.98;97026.38;6288371;28;20404;-60
2023/06/10 09:11:15;;;;;;;3.08;1.70;;;;;;;34.20;17.09;97035.63;6284657;28;20036;-60
2023/06/10 09:14:19;;;;;;;1.98;1.77;;;;;;;33.79;17.17;97029.34;6284109;28;20037;-60
2023/06/10 09:17:24;;;;;;;2.28;2.08;;;;;;;32.82;18.00;97024.53;6288159;28;20071;-60
2023/06/10 09:20:25;;;;;;;2.50;2.03;;;;;;;31.51;19.54;97029.88;6289369;28;20048;-60
2023/06/10 09:23:30;;;;;;;3.45;2.25;;;;;;;30.59;20.09;97027.03;6285843;28;20059;-60
2023/06/10 09:26:36;;;;;;;4.25;2.05;;;;;;;30.46;20.92;97027.13;6284604;28;20509;-60
2023/06/10 09:29:53;;;;;;;3.85;1.80;;;;;;;30.53;20.79;97022.50;6286932;28;20044;-60
2023/06/10 09:32:57;;;;;;;3.35;2.38;;;;;;;31.27;20.79;97023.41;6287799;28;20052;-60
2023/06/10 09:36:03;;;;;;;3.58;2.88;;;;;;;33.71;18.24;97027.00;6284335;28;20048;-60
2023/06/10 09:39:21;;;;;;;5.13;2.63;;;;;;;33.44;18.12;97011.19;6287236;28;20685;-60
2023/06/10 09:42:25;;;;;;;2.33;1.75;;;;;;;31.81;18.98;97007.25;6284658;28;20049;-61
2023/06/10 09:45:32;;;;;;;2.78;1.88;;;;;;;30.78;19.78;97007.00;6290241;28;20048;-61
2023/06/10 09:48:45;;;;;;;3.58;1.88;;;;;;;32.90;18.61;97016.00;6290196;28;20036;-60
2023/06/10 09:51:54;;;;;;;4.78;2.92;;;;;;;35.25;17.11;97014.84;6288177;28;20053;-60
2023/06/10 09:55:02;;;;;;;2.37;1.87;;;;;;;35.63;16.89;97021.34;6289419;28;20455;-61
2023/06/10 09:58:08;;;;;;;3.83;2.00;;;;;;;35.38;16.12;97016.38;6289228;28;20482;-60
2023/06/10 10:01:13;;;;;;;1.90;1.75;;;;;;;36.39;15.56;97015.00;6286538;28;20040;-62
2023/06/10 10:04:25;;;;;;;2.75;1.70;;;;;;;36.44;15.53;97026.03;6284062;28;20121;-62
2023/06/10 10:07:26;;;;;;;4.40;2.40;;;;;;;34.91;16.61;97018.72;6283484;28;20047;-60
2023/06/10 10:10:28;;;;;;;3.37;2.20;;;;;;;34.85;16.80;97004.97;6287425;28;20052;-65
2023/06/10 10:13:34;;;;;;;2.33;1.90;;;;;;;35.01;16.60;97007.91;6285519;28;20435;-63
2023/06/10 10:16:43;;;;;;;3.10;1.98;;;;;;;33.38;18.04;97000.44;6282070;28;20534;-61
2023/06/10 10:19:53;;;;;;;4.80;2.35;;;;;;;32.07;19.23;97006.88;6284821;28;20036;-64
2023/06/10 10:22:57;;;;;;;3.97;2.13;;;;;;;31.39;20.00;96993.59;6286536;28;20045;-60
2023/06/10 10:26:07;;;;;;;4.20;2.28;;;;;;;31.08;20.96;96998.97;6291057;28;20048;-61
2023/06/10 10:29:17;;;;;;;5.90;2.00;;;;;;;30.68;21.09;96993.09;6286895;28;20040;-64
2023/06/10 10:32:40;;;;;;;5.90;2.65;;;;;;;30.37;21.17;96991.28;6289110;28;20084;-61
2023/06/10 10:35:43;;;;;;;4.18;2.75;;;;;;;29.87;22.09;96986.66;6289072;28;20044;-64
2023/06/10 10:38:49;;;;;;;4.03;2.45;;;;;;;29.68;22.08;97006.59;6288147;28;20052;-62
2023/06/10 10:41:51;;;;;;;3.63;2.38;;;;;;;29.59;22.13;96999.72;6285853;28;20056;-63
2023/06/10 10:44:53;;;;;;;3.13;2.37;;;;;;;29.48;22.32;97001.22;6285646;28;20063;-62
2023/06/10 10:47:56;;;;;;;3.55;2.20;;;;;;;29.27;23.02;97008.63;6280255;28;20056;-69
2023/06/10 10:50:59;;;;;;;4.72;1.80;;;;;;;29.30;22.79;97000.06;6281364;28;20039;-62
2023/06/10 10:54:13;;;;;;;2.40;2.03;;;;;;;29.29;22.65;97000.28;6284792;28;20075;-63
2023/06/10 10:57:21;;;;;;;6.82;3.00;;;;;;;29.18;23.43;97000.94;6281900;28;20045;-63
2023/06/10 11:00:37;;;;;;;3.47;2.17;;;;;;;29.23;22.90;96998.44;6290492;28;20044;-63
2023/06/10 11:03:46;;;;;;;2.90;1.90;;;;;;;29.22;22.92;96994.06;6281333;28;20032;-63
2023/06/10 11:06:54;;;;;;;2.20;1.90;;;;;;;29.28;22.60;96993.19;6282601;28;20052;-62
2023/06/10 11:10:12;;;;;;;3.22;2.03;;;;;;;28.98;23.09;96993.69;6280150;28;20047;-62
2023/06/10 11:13:19;;;;;;;3.30;2.10;;;;;;;29.88;22.42;96992.91;6280342;28;20463;-61
2023/06/10 11:16:20;;;;;;;2.72;1.65;;;;;;;31.19;21.40;96989.22;6283355;28;20032;-63
2023/06/10 11:19:51;;;;;;;4.03;2.20;;;;;;;31.77;20.54;96996.84;6280647;28;20036;-73
2023/06/10 11:22:58;;;;;;;2.88;1.88;;;;;;;31.29;20.56;96992.22;6265936;28;20060;-63
2023/06/10 11:26:31;;;;;;;5.15;2.40;;;;;;;30.63;21.10;96982.06;6281903;28;20036;-63
2023/06/10 11:29:54;;;;;;;3.50;1.67;;;;;;;30.90;21.20;96981.81;6283274;28;20040;-63
2023/06/10 11:32:59;;;;;;;2.03;1.80;;;;;;;31.10;20.79;96968.84;6280088;28;20135;-63
2023/06/10 11:36:06;;;;;;;2.88;2.35;;;;;;;31.25;20.60;96974.72;6288657;28;20052;-63
2023/06/10 11:39:10;;;;;;;2.97;1.77;;;;;;;30.74;21.27;96965.03;6282075;28;20127;-63
2023/06/10 11:42:17;;;;;;;3.70;2.10;;;;;;;29.51;22.27;96955.53;6281925;28;20040;-63
2023/06/10 11:45:19;;;;;;;3.35;2.10;;;;;;;29.28;22.34;96956.06;6287653;28;20067;-62
2023/06/10 11:48:24;;;;;;;3.53;1.90;;;;;;;29.30;22.58;96951.28;6288256;28;20750;-63
2023/06/10 11:51:32;;;;;;;3.17;1.73;;;;;;;29.05;22.93;96962.03;6285864;28;20539;-63
2023/06/10 11:54:33;;;;;;;5.00;2.00;;;;;;;28.91;23.09;96954.97;6284739;28;20067;-62
2023/06/10 11:57:37;;;;;;;2.85;1.63;;;;;;;28.92;23.05;96956.63;6278981;28;20040;-63
2023/06/10 12:00:46;;;;;;;3.10;1.80;;;;;;;28.87;22.98;96945.59;6272443;28;20969;-64
2023/06/10 12:03:56;;;;;;;3.05;1.55;;;;;;;28.88;23.05;96944.56;6280766;28;20054;-64
2023/06/10 12:07:00;;;;;;;3.00;1.80;;;;;;;29.18;22.52;96944.84;6281494;28;20051;-63
2023/06/10 12:10:04;;;;;;;5.35;1.90;;;;;;;29.03;22.63;96941.59;6286693;28;20037;-62
2023/06/10 12:13:11;;;;;;;2.42;1.90;;;;;;;29.36;22.92;96951.47;6285656;28;20562;-61
2023/06/10 12:16:19;;;;;;;1.92;1.73;;;;;;;29.22;22.68;96939.88;6282718;28;20037;-63
2023/06/10 12:19:20;;;;;;;4.10;1.73;;;;;;;29.35;22.74;96945.19;6284441;28;20138;-62
2023/06/10 12:22:23;;;;;;;2.00;1.80;;;;;;;29.61;22.30;96940.66;6283620;28;20055;-62
2023/06/10 12:25:28;;;;;;;2.20;2.00;;;;;;;29.32;22.41;96929.38;6283401;28;20058;-62
2023/06/10 12:28:32;;;;;;;3.60;2.00;;;;;;;29.32;22.30;96921.25;6288959;28;20041;-64
2023/06/10 12:31:55;;;;;;;2.33;2.13;;;;;;;29.16;22.56;96924.44;6285017;28;20052;-62
2023/06/10 12:35:04;;;;;;;2.30;1.85;;;;;;;28.68;23.28;96924.81;6279650;28;20107;-63
2023/06/10 12:38:10;;;;;;;2.60;1.83;;;;;;;28.36;23.68;96916.53;6286466;28;20051;-62
2023/06/10 12:41:16;;;;;;;2.40;1.77;;;;;;;28.31;24.24;96917.19;6282317;28;20041;-62
2023/06/10 12:44:38;;;;;;;3.15;2.08;;;;;;;28.36;24.02;96913.81;6285642;28;20053;-63
2023/06/10 12:47:45;;;;;;;4.68;2.63;;;;;;;28.38;23.88;96909.03;6277426;28;20048;-63
2023/06/10 12:50:55;;;;;;;3.40;2.35;;;;;;;28.29;23.84;96911.13;6287416;28;20515;-63
2023/06/10 12:53:56;;;;;;;4.50;2.10;;;;;;;28.06;24.35;96908.88;6283838;28;20056;-62
2023/06/10 12:56:57;;;;;;;4.20;1.85;;;;;;;27.98;24.38;96900.97;6285121;28;20033;-63
2023/06/10 13:00:04;;;;;;;6.60;2.33;;;;;;;27.84;24.57;96899.31;6286162;28;20045;-62
2023/06/10 13:03:10;;;;;;;3.75;2.03;;;;;;;27.82;24.71;96896.81;6284526;28;20044;-63
2023/06/10 13:06:11;;;;;;;2.35;1.77;;;;;;;27.92;24.44;96912.63;6282447;28;20037;-63
2023/06/10 13:09:16;;;;;;;3.05;2.10;;;;;;;27.87;24.04;96909.72;6282506;28;20096;-63
2023/06/10 13:12:17;;;;;;;3.17;1.88;;;;;;;27.57;24.24;96893.84;6286287;28;20059;-63
2023/06/10 13:15:18;;;;;;;2.45;1.80;;;;;;;27.51;24.54;96892.78;6282076;28;20418;-64
2023/06/10 13:18:22;;;;;;;4.18;2.17;;;;;;;27.23;25.05;96892.13;6283666;28;20536;-62
2023/06/10 13:21:26;;;;;;;4.63;2.60;;;;;;;27.01;25.43;96867.13;6284024;28;20044;-62
2023/06/10 13:24:28;;;;;;;2.72;2.22;;;;;;;27.28;25.19;96885.06;6296854;28;20105;-64
2023/06/10 13:27:34;;;;;;;4.18;2.60;;;;;;;27.25;24.84;96890.88;6290484;28;20404;-62
2023/06/10 13:30:38;;;;;;;3.63;2.63;;;;;;;26.99;25.09;96877.28;6287674;28;20044;-63
2023/06/10 13:33:43;;;;;;;3.35;2.25;;;;;;;26.82;25.44;96893.84;6286609;28;20503;-64
2023/06/10 13:36:49;;;;;;;3.15;1.98;;;;;;;26.85;25.19;96874.53;6289442;28;20057;-63
2023/06/10 13:39:51;;;;;;;3.13;2.20;;;;;;;26.69;25.19;96880.28;6287074;28;20514;-63
2023/06/10 13:42:54;;;;;;;2.72;1.92;;;;;;;26.71;25.36;96885.47;6285547;28;20052;-63
2023/06/10 13:45:57;;;;;;;3.63;1.83;;;;;;;26.26;25.85;96885.84;6283964;28;20036;-62
2023/06/10 13:49:02;;;;;;;3.35;1.83;;;;;;;26.31;25.98;96877.16;6283826;28;20056;-61
2023/06/10 13:52:03;;;;;;;6.80;2.03;;;;;;;26.21;26.28;96882.88;6282722;28;20040;-62
2023/06/10 13:55:05;;;;;;;7.13;3.42;;;;;;;26.28;26.37;96889.19;6286774;28;20178;-63
2023/06/10 13:58:09;;;;;;;4.13;2.67;;;;;;;26.42;26.24;96896.31;6282503;28;20037;-62
2023/06/10 14:01:12;;;;;;;3.38;2.45;;;;;;;26.45;25.88;96899.66;6289816;28;20044;-63
2023/06/10 14:04:19;;;;;;;3.88;2.30;;;;;;;26.40;26.04;96906.47;6286462;28;20041;-63
2023/06/10 14:07:23;;;;;;;3.97;2.55;;;;;;;26.28;26.61;96910.75;6285104;28;20048;-63
2023/06/10 14:10:29;;;;;;;4.75;2.78;;;;;;;26.39;26.09;96912.91;6288829;28;20032;-63
2023/06/10 14:13:33;;;;;;;2.92;2.17;;;;;;;26.29;26.60;96901.63;6285192;28;20040;-64
2023/06/10 14:16:35;;;;;;;5.95;2.42;;;;;;;26.26;26.66;96907.41;6290120;28;20121;-62
2023/06/10 14:19:40;;;;;;;3.72;2.38;;;;;;;26.30;26.58;96914.09;6287216;28;20059;-62
2023/06/10 14:22:43;;;;;;;3.22;2.80;;;;;;;26.24;26.61;96917.56;6291407;28;20467;-63
2023/06/10 14:25:50;;;;;;;6.28;3.13;;;;;;;26.21;26.20;96909.84;6286664;28;20049;-63
2023/06/10 14:28:54;;;;;;;5.63;2.97;;;;;;;26.02;26.57;96905.19;6283812;28;20418;-63
2023/06/10 14:31:55;;;;;;;4.10;2.67;;;;;;;26.16;26.46;96913.16;6281315;28;20551;-64
2023/06/10 14:35:02;;;;;;;3.67;2.40;;;;;;;26.15;26.63;96921.44;6289172;28;20067;-63